Hanover, PA (17331)

11:46 PM EDT on April 18, 2015 (GMT -0400)
Hanover, PA | | Change Station
CLOSE
Current Station
Personal Weather Station
Location: Hanover, PA
Elevation: 614 ft
Nearby Weather Stations

Elev 614 ft 39.79 °N, 76.98 °W | Updated 1 minute ago

Partly Cloudy
Partly Cloudy
64.4 °F
Feels Like 64.4 °F
N
0.0
Wind Variable Wind from East
Gusts 2.0 mph

Today
High -- | Low -- °F
--% Chance of Precip.
Yesterday
High -- | Low -- °F
Precip. -- in
6:26 AM 7:49 PM
New Moon, 0% visible
Pressure 30.00 in
Visibility 10.0 miles
Clouds Clear
Dew Point 48 °F
Humidity 55%
Rainfall 0.00 in
Snow Depth Not available.
UV 0 out of 12
Pollen 11.50 out of 12
Air Quality Not available.
Flu Activity Sporadic
METAR KTHV 190253Z AUTO 00000KT 10SM CLR 18/08 A3000 RMK AO2 SLP159 T01780078 51019

More Conditions Fewer Conditions

Pressure 30.00 in
Visibility 10.0 miles
Clouds Clear
Dew Point 48 °F
Humidity 55%
Rainfall 0.00 in
Snow Depth Not available.
UV 0 out of 12
Pollen 11.50 out of 12
Air Quality Not available.
Flu Activity Sporadic
METAR KTHV 190253Z AUTO 00000KT 10SM CLR 18/08 A3000 RMK AO2 SLP159 T01780078 51019

More Conditions Fewer Conditions

10-Day Weather Forecast

Almanac

Astronomy

Apr. 18, 2015 Rise Set
Actual Time
Civil Twilight
Nautical Twilight
Astronomical Twilight
Moon
Length of Visible Light
Length of Day
Tomorrow will be .
, % of the Moon is Illuminated

Today's Extremes

State Highs State Lows

Community

WunderPhotos

Upload Photos

1,814,710 photos uploaded!

WunderBlogs® & News

Nearby

Air Quality

  Air Quality AQ Index Pollutant
Not available.

Snow Depth

Station Depth Elevation

Earthquake Activity

City Distance Mag. Time & Date
Minimum magnitude displayed is 2.5.

Coastal Water Temperatures

Place Temperature

Stations

Nearby Weather Stations

Station Location Temp. Windchill Dew Point Humidity Wind Precip. Elev Updated Type